Hlavní strana
METAR-TAF:

METAR-TAF

Letiště :

Narsarsuaq, Grónsko

zeměpisná šířka: 61-10N, zeměpisná délka: 045-25W, výška: 34 m

Aktuální stav počasí

Zpráva byla vytvořena před 41 minutami, v 08:50 UTC
Jihozápadní vítr 5 kt
Teplota -4°C
Vlhkost vzduchu 63%
Tlak 991 hPa
Viditelnost 10 km a více
Oblačno až skoro zataženo ve výšce 10000 ft
Oblačno až skoro zataženo ve výšce 15000 ft

METAR: BGBW 170850Z 23005KT 9999 BKN100 BKN150 M04/M10 Q0991

Čas: 07:31 (09:31 UTC)

Předpověď počasí

Zpráva byla vytvořena před 4 hodinami a 10 minutami, v 05:21 UTC
Předpověď platná od 17 v 06 UTC do 17 v 15 UTC
Východoseverovýchodní vítr 5 kt
Viditelnost 10 km a více
Oblačno až skoro zataženo ve výšce 18000 ft
Změna
od 17 v 09 UTC do 17 v 12 UTC
Východoseverovýchodní vítr 20 kt
Dočasný
od 17 v 12 UTC do 17 v 15 UTC
Východoseverovýchodní vítr 25 kt s nárazy do 35 kt
Oblačno až skoro zataženo ve výšce 8000 ft

TAF: BGBW 170521Z 1706/1715 06005KT 9999 BKN180 BECMG 1709/1712 06020KT TEMPO 1712/1715 06025G35KT BKN080

Stav a předpovědi počasí z více než 4 000 letišť (zprávy METAR a TAF).

Červené a žluté tečky na mapě představují dostupné meteorologické stanice.

Když kurzor umístíte na tečku, zobrazí se název stanice.

Pak kliknutím zobrazíte stav a předpověď počasí.

Chcete-li změnit mapu, kliknutím na zelené tlačítko se znaménkem +mapu přiblížíte, kliknutím na zelené tlačítko se znaménkem – mapu oddálíte a kliknutím na zelené šipky přejdete na sousední mapy.


METAR-TAF: